createdAt,value
2018-04-30T00:00:40.785Z,83.50
2018-04-30T00:03:08.284Z,89.10
2018-04-30T00:05:35.812Z,90.97
2018-04-30T00:08:03.713Z,100.37
2018-04-30T00:10:31.225Z,96.30
2018-04-30T00:12:58.728Z,103.03
2018-04-30T00:15:26.647Z,102.40
2018-04-30T00:17:54.150Z,103.13
2018-04-30T00:20:21.730Z,104.73
2018-04-30T00:22:49.235Z,94.50
2018-04-30T00:25:17.148Z,98.30
2018-04-30T00:27:44.647Z,106.57
2018-04-30T00:30:12.167Z,106.67
2018-04-30T00:32:39.668Z,101.97
2018-04-30T00:35:07.188Z,104.70
2018-04-30T00:37:35.096Z,96.57
2018-04-30T00:40:02.614Z,100.43
2018-04-30T00:42:30.119Z,105.63
2018-04-30T00:44:58.035Z,105.80
2018-04-30T00:47:25.547Z,105.87
2018-04-30T00:49:53.080Z,106.67
2018-04-30T00:52:20.588Z,98.87
2018-04-30T00:55:00.057Z,102.33
2018-04-30T00:57:28.061Z,96.37
2018-04-30T00:59:55.581Z,96.40
2018-04-30T01:02:23.084Z,107.00
2018-04-30T01:04:50.994Z,108.73
2018-04-30T01:07:18.523Z,112.90
2018-04-30T01:09:46.108Z,107.60
2018-04-30T01:12:17.876Z,109.97
2018-04-30T01:14:45.772Z,94.27
2018-04-30T01:17:13.295Z,90.40
2018-04-30T01:19:40.795Z,94.63
2018-04-30T01:22:08.711Z,104.00
2018-04-30T01:24:36.216Z,103.50
2018-04-30T01:27:03.736Z,106.90
2018-04-30T01:29:31.239Z,156.77
2018-04-30T01:31:58.767Z,125.70
2018-04-30T01:34:26.664Z,209.77
2018-04-30T01:36:54.189Z,207.53
2018-04-30T01:39:21.691Z,111.57
2018-04-30T01:41:49.610Z,155.37
2018-04-30T01:44:17.115Z,135.90
2018-04-30T01:46:44.636Z,116.77
2018-04-30T01:49:12.224Z,194.53
2018-04-30T01:51:39.750Z,193.83
2018-04-30T01:54:07.643Z,146.27
2018-04-30T01:56:35.556Z,132.53
2018-04-30T01:59:03.062Z,134.33
2018-04-30T02:01:30.579Z,129.27
2018-04-30T02:03:58.084Z,161.23
2018-04-30T02:06:25.608Z,124.33
2018-04-30T02:08:53.515Z,141.37
2018-04-30T02:11:21.034Z,133.40
2018-04-30T02:13:48.541Z,142.50
2018-04-30T02:16:16.063Z,145.27
2018-04-30T02:18:43.573Z,132.07
2018-04-30T02:21:11.108Z,162.13
2018-04-30T02:23:38.620Z,189.70
2018-04-30T02:26:06.156Z,123.67
2018-04-30T02:28:33.661Z,116.20
2018-04-30T02:31:01.588Z,127.87
2018-04-30T02:33:29.194Z,107.37
2018-04-30T02:35:56.619Z,190.60
2018-04-30T02:38:24.137Z,155.47
2018-04-30T02:40:52.044Z,167.70
2018-04-30T02:43:19.567Z,161.87
2018-04-30T02:45:47.068Z,149.43
2018-04-30T02:48:14.988Z,143.83
2018-04-30T02:50:42.488Z,98.40
2018-04-30T02:53:10.013Z,132.27
2018-04-30T02:55:37.525Z,279.50
2018-04-30T02:58:05.056Z,325.60
2018-04-30T03:00:32.565Z,132.50
2018-04-30T03:03:00.076Z,95.20
2018-04-30T03:05:27.979Z,112.27
2018-04-30T03:07:55.500Z,119.93
2018-04-30T03:10:23.018Z,243.03
2018-04-30T03:12:50.547Z,210.17
2018-04-30T03:15:18.052Z,215.20
2018-04-30T03:17:45.585Z,93.83
2018-04-30T03:20:13.088Z,112.10
2018-04-30T03:22:41.005Z,162.23
2018-04-30T03:25:08.507Z,98.20
2018-04-30T03:27:36.023Z,97.50
2018-04-30T03:30:03.527Z,94.03
2018-04-30T03:32:31.051Z,79.93
2018-04-30T03:34:58.951Z,116.60
2018-04-30T03:37:26.472Z,74.77
2018-04-30T03:39:53.975Z,64.13
2018-04-30T03:42:21.883Z,70.23
2018-04-30T03:44:49.383Z,63.40
2018-04-30T03:47:16.905Z,59.23
2018-04-30T03:49:44.532Z,49.40
2018-04-30T03:52:11.964Z,53.40
2018-04-30T03:54:39.471Z,45.77
2018-04-30T03:57:07.076Z,46.77
2018-04-30T03:59:34.527Z,40.57
2018-04-30T04:02:13.973Z,40.07
2018-04-30T04:04:53.169Z,35.17
2018-04-30T04:07:20.703Z,36.60
2018-04-30T04:09:48.296Z,27.00
2018-04-30T04:12:16.183Z,28.83
2018-04-30T04:14:44.100Z,23.77
2018-04-30T04:17:11.598Z,16.77
2018-04-30T04:19:39.104Z,9.10
2018-04-30T04:22:06.996Z,5.37
2018-04-30T04:24:34.508Z,3.87
2018-04-30T04:27:02.023Z,4.47
2018-04-30T04:29:29.535Z,3.30
2018-04-30T04:31:57.028Z,2.70
2018-04-30T04:34:24.543Z,1.80
2018-04-30T04:36:52.032Z,2.27
2018-04-30T04:39:19.547Z,1.60
2018-04-30T04:41:47.082Z,1.03
2018-04-30T04:44:14.960Z,2.00
2018-04-30T04:46:42.460Z,2.60
2018-04-30T04:49:09.975Z,3.23
2018-04-30T04:51:37.866Z,3.70
2018-04-30T04:54:05.379Z,4.13
2018-04-30T04:56:32.871Z,3.60
2018-04-30T04:59:00.380Z,4.30
2018-04-30T05:01:27.876Z,4.57
2018-04-30T05:03:55.406Z,3.40
2018-04-30T05:06:23.300Z,3.13
2018-04-30T05:08:50.817Z,1.67
2018-04-30T05:11:18.304Z,3.17
2018-04-30T05:13:45.820Z,2.17
2018-04-30T05:16:13.319Z,2.80
2018-04-30T05:18:40.827Z,3.73
2018-04-30T05:21:08.311Z,5.70
2018-04-30T05:23:36.219Z,6.30
2018-04-30T05:26:03.720Z,7.17
2018-04-30T05:28:31.242Z,6.47
2018-04-30T05:30:58.734Z,5.47
2018-04-30T05:33:26.240Z,5.27
2018-04-30T05:35:53.751Z,4.97
2018-04-30T05:38:21.641Z,4.67
2018-04-30T05:40:49.153Z,4.13
2018-04-30T05:43:16.647Z,4.27
2018-04-30T05:45:44.340Z,4.90
2018-04-30T05:48:12.234Z,5.67
2018-04-30T05:50:39.743Z,5.53
2018-04-30T05:53:07.231Z,5.40
2018-04-30T05:55:34.735Z,5.20
2018-04-30T05:58:02.223Z,3.50
2018-04-30T06:00:29.814Z,2.67
2018-04-30T06:02:57.240Z,4.23
2018-04-30T06:05:25.172Z,4.37
2018-04-30T06:07:52.663Z,3.23
2018-04-30T06:10:20.191Z,2.20
2018-04-30T06:12:47.691Z,4.10
2018-04-30T06:15:15.299Z,2.40
2018-04-30T06:17:42.723Z,1.80
2018-04-30T06:20:10.230Z,2.40
2018-04-30T06:22:37.723Z,1.67
2018-04-30T06:25:05.630Z,2.70
2018-04-30T06:27:33.131Z,2.00
2018-04-30T06:30:00.643Z,2.40
2018-04-30T06:32:28.530Z,1.90
2018-04-30T06:34:56.043Z,3.77
2018-04-30T06:37:23.535Z,2.30
2018-04-30T06:39:51.048Z,1.80
2018-04-30T06:42:18.942Z,1.70
2018-04-30T06:44:46.455Z,2.90
2018-04-30T06:47:13.949Z,1.30
2018-04-30T06:49:41.460Z,1.00
2018-04-30T06:52:08.980Z,0.90
2018-04-30T06:54:36.487Z,1.10
2018-04-30T06:57:03.983Z,1.73
2018-04-30T06:59:31.479Z,2.00
2018-04-30T07:01:59.006Z,1.10
2018-04-30T07:04:26.495Z,1.70
2018-04-30T07:06:54.001Z,3.03
2018-04-30T07:09:21.566Z,1.03
2018-04-30T07:11:49.036Z,1.00
2018-04-30T07:14:16.541Z,1.20
2018-04-30T07:16:44.445Z,3.63
2018-04-30T07:19:11.942Z,1.17
2018-04-30T07:21:39.456Z,2.07
2018-04-30T07:24:06.952Z,3.40
2018-04-30T07:26:34.469Z,2.37
2018-04-30T07:29:01.981Z,1.97
2018-04-30T07:31:29.888Z,1.40
2018-04-30T07:33:57.387Z,1.40
2018-04-30T07:36:24.905Z,2.13
2018-04-30T07:38:52.791Z,2.67
2018-04-30T07:41:20.303Z,2.47
2018-04-30T07:43:47.799Z,1.67
2018-04-30T07:46:15.315Z,1.70
2018-04-30T07:48:42.809Z,2.63
2018-04-30T07:51:10.331Z,2.83
2018-04-30T07:53:38.224Z,1.10
2018-04-30T07:56:05.746Z,2.90
2018-04-30T07:58:33.236Z,1.63
2018-04-30T08:01:00.747Z,1.20
2018-04-30T08:03:28.239Z,3.43
2018-04-30T08:05:55.748Z,3.00
2018-04-30T08:08:23.986Z,1.50
2018-04-30T08:10:51.504Z,1.70
2018-04-30T08:13:20.057Z,2.70
2018-04-30T08:15:47.566Z,3.90
2018-04-30T08:18:15.066Z,2.40
2018-04-30T08:20:42.979Z,1.87
2018-04-30T08:23:10.481Z,2.03
2018-04-30T08:25:38.000Z,2.10
2018-04-30T08:28:05.487Z,1.40
2018-04-30T08:30:32.983Z,2.37
2018-04-30T08:33:00.495Z,4.70
2018-04-30T08:35:27.989Z,2.80
2018-04-30T08:37:55.512Z,1.47
2018-04-30T08:40:23.132Z,4.83
2018-04-30T08:42:50.675Z,2.10
2018-04-30T08:45:18.171Z,2.00
2018-04-30T08:47:46.157Z,1.70
2018-04-30T08:50:13.647Z,4.13
2018-04-30T08:52:41.159Z,1.40
2018-04-30T08:55:08.695Z,1.70
2018-04-30T08:57:36.203Z,2.37
2018-04-30T09:00:03.696Z,2.00
2018-04-30T09:02:31.608Z,3.27
2018-04-30T09:04:59.108Z,1.57
2018-04-30T09:07:26.622Z,2.20
2018-04-30T09:09:54.812Z,1.70
2018-04-30T09:12:22.747Z,2.03
2018-04-30T09:14:50.273Z,3.20
2018-04-30T09:17:17.812Z,1.70
2018-04-30T09:19:45.310Z,2.53
2018-04-30T09:22:13.211Z,2.77
2018-04-30T09:24:40.708Z,1.60
2018-04-30T09:27:08.292Z,3.60
2018-04-30T09:29:35.919Z,3.03
2018-04-30T09:32:03.461Z,0.90
2018-04-30T09:34:31.355Z,3.90
2018-04-30T09:36:59.264Z,1.27
2018-04-30T09:39:26.803Z,1.27
2018-04-30T09:41:54.708Z,1.57
2018-04-30T09:44:22.200Z,1.47
2018-04-30T09:46:49.747Z,0.90
2018-04-30T09:49:17.283Z,3.47
2018-04-30T09:51:44.775Z,2.13
2018-04-30T09:54:12.664Z,1.37
2018-04-30T09:56:40.164Z,1.63
2018-04-30T09:59:07.672Z,3.03
2018-04-30T10:01:35.162Z,1.67
2018-04-30T10:04:03.064Z,1.60
2018-04-30T10:06:30.556Z,3.30
2018-04-30T10:08:58.063Z,1.30
2018-04-30T10:11:25.559Z,4.93
2018-04-30T10:13:53.467Z,2.47
2018-04-30T10:16:20.959Z,2.87
2018-04-30T10:18:48.481Z,2.60
2018-04-30T10:21:16.654Z,4.77
2018-04-30T10:23:44.189Z,1.40
2018-04-30T10:26:11.692Z,1.30
2018-04-30T10:28:39.303Z,1.93
2018-04-30T10:31:06.724Z,1.30
2018-04-30T10:33:34.241Z,1.80
2018-04-30T10:36:01.743Z,1.10
2018-04-30T10:38:29.255Z,0.70
2018-04-30T10:40:57.149Z,1.80
2018-04-30T10:43:24.667Z,1.13
2018-04-30T10:45:52.246Z,1.00
2018-04-30T10:48:19.689Z,6.63
2018-04-30T10:50:47.192Z,4.03
2018-04-30T10:53:14.711Z,1.87
2018-04-30T10:55:42.208Z,2.30
2018-04-30T10:58:09.727Z,1.87
2018-04-30T11:00:37.244Z,1.10
2018-04-30T11:03:04.909Z,1.87
2018-04-30T11:05:32.405Z,1.80
2018-04-30T11:07:59.927Z,5.13
2018-04-30T11:10:27.817Z,1.90
2018-04-30T11:12:55.331Z,1.70
2018-04-30T11:15:22.827Z,1.60
2018-04-30T11:17:50.344Z,1.03
2018-04-30T11:20:17.877Z,4.43
2018-04-30T11:22:45.491Z,2.20
2018-04-30T11:25:12.923Z,1.10
2018-04-30T11:27:40.496Z,1.70
2018-04-30T11:30:07.948Z,1.23
2018-04-30T11:32:35.443Z,1.40
2018-04-30T11:35:03.400Z,1.40
2018-04-30T11:37:30.887Z,4.73
2018-04-30T11:39:58.469Z,1.10
2018-04-30T11:42:25.924Z,2.30
2018-04-30T11:44:53.847Z,1.83
2018-04-30T11:47:21.472Z,1.90
2018-04-30T11:49:49.391Z,1.83
2018-04-30T11:52:16.928Z,1.37
2018-04-30T11:54:45.199Z,2.00
2018-04-30T11:57:12.696Z,0.97
2018-04-30T11:59:40.607Z,1.37
2018-04-30T12:02:08.120Z,1.40
2018-04-30T12:04:37.057Z,3.80
2018-04-30T12:07:04.587Z,4.33
2018-04-30T12:09:32.104Z,0.87
2018-04-30T12:11:59.611Z,1.70
2018-04-30T12:14:27.307Z,0.87
2018-04-30T12:16:55.051Z,0.60
2018-04-30T12:19:24.416Z,1.00
2018-04-30T12:21:52.471Z,0.90
2018-04-30T12:24:20.072Z,1.23
2018-04-30T12:26:47.661Z,0.93
2018-04-30T12:29:16.423Z,10.23
2018-04-30T12:31:44.998Z,2.63
2018-04-30T12:34:12.535Z,1.03
2018-04-30T12:36:40.048Z,1.90
2018-04-30T12:39:07.680Z,2.30
2018-04-30T12:41:36.244Z,1.10
2018-04-30T12:44:03.776Z,1.83
2018-04-30T12:46:31.390Z,1.47
2018-04-30T12:48:58.932Z,3.30
2018-04-30T12:51:26.445Z,1.90
2018-04-30T12:53:54.371Z,2.70
2018-04-30T12:56:22.152Z,1.83
2018-04-30T12:58:50.224Z,2.77
2018-04-30T13:01:17.768Z,1.13
2018-04-30T13:03:46.980Z,2.40
2018-04-30T13:06:15.753Z,1.63
2018-04-30T13:08:44.520Z,1.60
2018-04-30T13:11:12.132Z,1.33
2018-04-30T13:13:39.639Z,4.87
2018-04-30T13:16:07.164Z,1.20
2018-04-30T13:18:34.667Z,0.70
2018-04-30T13:21:02.575Z,1.50
2018-04-30T13:23:30.076Z,2.30
2018-04-30T13:25:57.599Z,1.70
2018-04-30T13:28:25.091Z,0.97
2018-04-30T13:30:52.599Z,0.90
2018-04-30T13:33:20.093Z,0.50
2018-04-30T13:35:48.810Z,1.07
2018-04-30T13:38:16.300Z,0.93
2018-04-30T13:40:44.236Z,1.00
2018-04-30T13:43:11.824Z,0.90
2018-04-30T13:45:39.728Z,1.27
2018-04-30T13:48:07.231Z,1.10
2018-04-30T13:50:34.739Z,3.13
2018-04-30T13:53:02.235Z,2.00
2018-04-30T13:55:29.747Z,0.90
2018-04-30T13:57:57.239Z,0.70
2018-04-30T14:00:24.752Z,0.80
2018-04-30T14:02:52.273Z,1.20
2018-04-30T14:05:20.344Z,2.53
2018-04-30T14:07:47.844Z,2.73
2018-04-30T14:10:15.760Z,2.30
2018-04-30T14:12:43.268Z,1.40
2018-04-30T14:15:10.785Z,3.80
2018-04-30T14:17:38.285Z,0.87
2018-04-30T14:20:05.801Z,0.60
2018-04-30T14:22:33.696Z,1.00
2018-04-30T14:25:01.200Z,0.73
2018-04-30T14:27:28.716Z,0.60
2018-04-30T14:29:56.212Z,1.07
2018-04-30T14:32:23.715Z,2.40
2018-04-30T14:34:51.203Z,0.63
2018-04-30T14:37:18.712Z,0.77
2018-04-30T14:39:46.600Z,2.30
2018-04-30T14:42:14.113Z,0.47
2018-04-30T14:44:41.613Z,1.60
2018-04-30T14:47:09.571Z,0.40
2018-04-30T14:49:37.066Z,0.87
2018-04-30T14:52:04.588Z,1.40
2018-04-30T14:54:32.087Z,0.50
2018-04-30T14:56:59.604Z,0.77
2018-04-30T14:59:27.108Z,0.60
2018-04-30T15:01:54.632Z,0.90
2018-04-30T15:04:22.530Z,0.70
2018-04-30T15:06:50.067Z,0.82
2018-04-30T15:09:17.595Z,0.43
2018-04-30T15:11:45.147Z,1.17
2018-04-30T15:14:12.656Z,3.60
2018-04-30T15:16:40.175Z,0.80
2018-04-30T15:19:07.675Z,0.93
2018-04-30T15:21:35.253Z,0.60
2018-04-30T15:24:02.763Z,0.80
2018-04-30T15:26:30.307Z,3.33
2018-04-30T15:28:57.865Z,1.23
2018-04-30T15:31:25.396Z,1.35
2018-04-30T15:33:53.296Z,0.50
2018-04-30T15:36:20.819Z,1.20
2018-04-30T15:38:48.314Z,0.77
2018-04-30T15:41:16.261Z,0.80
2018-04-30T15:43:43.763Z,0.60
2018-04-30T15:46:11.734Z,0.88
2018-04-30T15:48:39.352Z,0.90
2018-04-30T15:51:06.842Z,3.10
2018-04-30T15:53:34.358Z,1.13
2018-04-30T15:56:02.252Z,1.10
2018-04-30T15:58:29.760Z,1.23
2018-04-30T16:00:57.255Z,0.70
2018-04-30T16:03:24.760Z,0.70
2018-04-30T16:05:52.651Z,0.90
2018-04-30T16:08:20.155Z,1.00
2018-04-30T16:10:47.651Z,1.23
2018-04-30T16:13:15.175Z,0.60
2018-04-30T16:15:42.715Z,1.37
2018-04-30T16:18:10.623Z,1.27
2018-04-30T16:20:38.131Z,0.87
2018-04-30T16:23:05.652Z,0.90
2018-04-30T16:25:33.472Z,2.03
2018-04-30T16:28:00.979Z,1.00
2018-04-30T16:30:28.489Z,1.87
2018-04-30T16:32:56.020Z,2.30
2018-04-30T16:35:23.911Z,0.80
2018-04-30T16:37:51.812Z,1.37
2018-04-30T16:40:19.315Z,0.87
2018-04-30T16:42:46.823Z,1.47
2018-04-30T16:45:14.712Z,0.80
2018-04-30T16:47:42.618Z,0.80
2018-04-30T16:50:10.111Z,0.90
2018-04-30T16:52:37.805Z,0.57
2018-04-30T16:55:05.295Z,0.80
2018-04-30T16:57:33.393Z,0.60
2018-04-30T17:00:00.888Z,1.03
2018-04-30T17:02:28.448Z,0.63
2018-04-30T17:04:56.028Z,0.63
2018-04-30T17:07:23.607Z,3.90
2018-04-30T17:09:51.178Z,0.50
2018-04-30T17:12:18.700Z,2.90
2018-04-30T17:14:46.699Z,0.70
2018-04-30T17:17:14.232Z,0.70
2018-04-30T17:19:41.723Z,0.80
2018-04-30T17:22:09.625Z,1.23
2018-04-30T17:24:37.143Z,0.60
2018-04-30T17:27:04.640Z,1.30
2018-04-30T17:29:32.556Z,1.95
2018-04-30T17:32:00.064Z,0.80
2018-04-30T17:34:27.600Z,2.05
2018-04-30T17:36:55.103Z,0.80
2018-04-30T17:39:22.701Z,2.17
2018-04-30T17:41:50.218Z,1.40
2018-04-30T17:44:17.732Z,0.60
2018-04-30T17:46:45.231Z,3.17
2018-04-30T17:49:12.752Z,1.17
2018-04-30T17:51:40.275Z,1.87
2018-04-30T17:54:07.876Z,1.00
2018-04-30T17:56:35.303Z,2.15
2018-04-30T17:59:03.263Z,0.70
2018-04-30T18:01:31.171Z,0.90
2018-04-30T18:03:59.088Z,1.00
2018-04-30T18:06:26.589Z,1.70
2018-04-30T18:08:54.100Z,1.35
2018-04-30T18:11:21.600Z,0.80
2018-04-30T18:13:49.123Z,1.55
2018-04-30T18:16:17.024Z,1.55
2018-04-30T18:18:44.540Z,0.70
2018-04-30T18:21:12.053Z,1.02
2018-04-30T18:23:39.961Z,0.90
2018-04-30T18:26:07.536Z,1.00
2018-04-30T18:28:35.098Z,0.68
2018-04-30T18:31:02.620Z,0.68
2018-04-30T18:33:30.143Z,0.95
2018-04-30T18:35:57.828Z,1.62
2018-04-30T18:38:25.343Z,1.00
2018-04-30T18:40:52.844Z,1.17
2018-04-30T18:43:20.383Z,0.88
2018-04-30T18:45:47.883Z,0.90
2018-04-30T18:48:15.413Z,4.18
2018-04-30T18:50:42.923Z,1.90
2018-04-30T18:53:10.828Z,0.93
2018-04-30T18:55:38.351Z,0.98
2018-04-30T18:58:05.853Z,0.60
2018-04-30T19:00:33.376Z,0.82
2018-04-30T19:03:00.891Z,0.50
2018-04-30T19:05:28.404Z,1.15
2018-04-30T19:07:55.957Z,0.80
2018-04-30T19:10:23.473Z,0.60
2018-04-30T19:12:50.984Z,0.90
2018-04-30T19:15:18.515Z,0.60
2018-04-30T19:17:46.007Z,0.60
2018-04-30T19:20:13.988Z,1.30
2018-04-30T19:22:41.453Z,0.47
2018-04-30T19:25:09.356Z,0.80
2018-04-30T19:27:36.859Z,1.02
2018-04-30T19:30:04.389Z,2.40
2018-04-30T19:32:31.894Z,0.90
2018-04-30T19:34:59.412Z,0.60
2018-04-30T19:37:26.923Z,1.08
2018-04-30T19:39:54.432Z,1.60
2018-04-30T19:42:21.928Z,0.88
2018-04-30T19:44:49.870Z,0.50
2018-04-30T19:47:17.364Z,0.65
2018-04-30T19:49:44.870Z,0.40
2018-04-30T19:52:12.362Z,1.12
2018-04-30T19:54:39.866Z,2.53
2018-04-30T19:57:07.355Z,0.80
2018-04-30T19:59:35.307Z,0.57
2018-04-30T20:02:02.835Z,0.88
2018-04-30T20:04:30.347Z,2.17
2018-04-30T20:06:57.852Z,1.67
2018-04-30T20:09:25.360Z,0.70
2018-04-30T20:11:52.978Z,0.90
2018-04-30T20:14:20.591Z,0.50
2018-04-30T20:16:48.559Z,1.33
2018-04-30T20:19:16.447Z,0.50
2018-04-30T20:21:44.351Z,1.10
2018-04-30T20:24:11.849Z,1.73
2018-04-30T20:26:39.364Z,1.73
2018-04-30T20:29:07.261Z,2.60
2018-04-30T20:31:34.772Z,0.50
2018-04-30T20:34:02.263Z,0.50
2018-04-30T20:36:29.776Z,1.40
2018-04-30T20:38:57.269Z,0.82
2018-04-30T20:41:24.780Z,0.57
2018-04-30T20:43:52.271Z,1.50
2018-04-30T20:46:20.185Z,1.02
2018-04-30T20:48:47.684Z,2.60
2018-04-30T20:51:15.187Z,1.35
2018-04-30T20:53:42.680Z,0.80
2018-04-30T20:56:10.189Z,0.80
2018-04-30T20:58:37.691Z,0.70
2018-04-30T21:01:05.195Z,1.05
2018-04-30T21:03:32.690Z,1.33
2018-04-30T21:06:00.208Z,3.50
2018-04-30T21:08:27.691Z,0.82
2018-04-30T21:10:55.932Z,1.02
2018-04-30T21:13:23.424Z,0.62
2018-04-30T21:15:51.052Z,0.40
2018-04-30T21:18:18.540Z,0.50
2018-04-30T21:20:46.048Z,0.40
2018-04-30T21:23:13.549Z,0.40
2018-04-30T21:25:41.058Z,0.52
2018-04-30T21:28:08.551Z,1.77
2018-04-30T21:30:36.204Z,0.80
2018-04-30T21:33:03.695Z,1.50
2018-04-30T21:35:31.212Z,1.95
2018-04-30T21:37:58.707Z,0.80
2018-04-30T21:40:26.227Z,2.40
2018-04-30T21:42:54.110Z,0.88
2018-04-30T21:45:21.991Z,1.60
2018-04-30T21:47:49.900Z,1.00
2018-04-30T21:50:17.396Z,0.50
2018-04-30T21:52:44.899Z,0.50
2018-04-30T21:55:12.387Z,0.73
2018-04-30T21:57:40.284Z,0.77
2018-04-30T22:00:07.774Z,1.45
2018-04-30T22:02:35.281Z,2.58
2018-04-30T22:05:02.773Z,2.15
2018-04-30T22:07:30.668Z,1.20
2018-04-30T22:09:58.156Z,0.95
2018-04-30T22:12:25.670Z,1.37
2018-04-30T22:14:53.160Z,0.55
2018-04-30T22:17:21.163Z,0.50
2018-04-30T22:19:48.648Z,1.62
2018-04-30T22:22:16.152Z,3.33
2018-04-30T22:24:43.652Z,1.58
2018-04-30T22:27:11.547Z,0.75
2018-04-30T22:29:39.035Z,2.28
2018-04-30T22:32:06.542Z,1.08
2018-04-30T22:34:34.028Z,0.62
2018-04-30T22:37:01.533Z,0.70
2018-04-30T22:39:29.050Z,0.70
2018-04-30T22:41:56.561Z,1.37
2018-04-30T22:44:24.439Z,5.55
2018-04-30T22:46:52.344Z,0.73
2018-04-30T22:49:19.827Z,0.50
2018-04-30T22:51:47.347Z,1.08
2018-04-30T22:54:14.843Z,2.15
2018-04-30T22:56:42.344Z,3.20
2018-04-30T22:59:09.832Z,0.55
2018-04-30T23:01:37.343Z,0.57
2018-04-30T23:04:05.229Z,0.70
2018-04-30T23:06:33.136Z,0.40
2018-04-30T23:09:00.646Z,0.60
2018-04-30T23:11:28.144Z,0.70
2018-04-30T23:13:55.648Z,0.50
2018-04-30T23:16:23.139Z,0.50
2018-04-30T23:18:50.667Z,0.60
2018-04-30T23:21:18.553Z,1.20
2018-04-30T23:23:46.116Z,0.60
2018-04-30T23:26:14.001Z,1.92
2018-04-30T23:28:41.507Z,0.50
2018-04-30T23:31:08.991Z,0.50
2018-04-30T23:33:36.507Z,0.60
2018-04-30T23:36:04.403Z,0.50
2018-04-30T23:38:31.942Z,0.77
2018-04-30T23:40:59.447Z,0.40
2018-04-30T23:43:26.947Z,0.75
2018-04-30T23:45:54.432Z,0.40
2018-04-30T23:48:21.931Z,0.52
2018-04-30T23:50:49.815Z,1.15
2018-04-30T23:53:17.724Z,1.52
2018-04-30T23:55:45.224Z,0.98
2018-04-30T23:58:12.735Z,1.08
